sensor_id;sensor_type;location;lat;lon;timestamp;P1;durP1;ratioP1;P2;durP2;ratioP2
12359;SDS011;6244;51.460;7.090;2022-10-31T00:04:32;1139.75;;;770.55;;
12359;SDS011;6244;51.460;7.090;2022-10-31T00:09:30;1138.13;;;768.33;;
12359;SDS011;6244;51.460;7.090;2022-10-31T00:14:26;1142.72;;;779.15;;
12359;SDS011;6244;51.460;7.090;2022-10-31T00:19:23;1145.90;;;782.80;;
12359;SDS011;6244;51.460;7.090;2022-10-31T00:24:19;1142.63;;;783.83;;
12359;SDS011;6244;51.460;7.090;2022-10-31T00:29:17;1141.32;;;780.67;;
12359;SDS011;6244;51.460;7.090;2022-10-31T00:34:14;1141.68;;;776.67;;
12359;SDS011;6244;51.460;7.090;2022-10-31T00:39:10;1140.43;;;770.53;;
12359;SDS011;6244;51.460;7.090;2022-10-31T00:44:06;1139.93;;;768.03;;
12359;SDS011;6244;51.460;7.090;2022-10-31T00:49:04;1139.95;;;765.38;;
12359;SDS011;6244;51.460;7.090;2022-10-31T00:54:01;1138.60;;;752.92;;
12359;SDS011;6244;51.460;7.090;2022-10-31T00:58:57;1138.43;;;750.15;;
12359;SDS011;6244;51.460;7.090;2022-10-31T01:03:54;1140.88;;;757.92;;
12359;SDS011;6244;51.460;7.090;2022-10-31T01:08:52;1141.37;;;756.60;;
12359;SDS011;6244;51.460;7.090;2022-10-31T01:13:49;1147.50;;;774.72;;
12359;SDS011;6244;51.460;7.090;2022-10-31T01:18:47;1143.03;;;772.73;;
12359;SDS011;6244;51.460;7.090;2022-10-31T01:23:43;1142.07;;;767.13;;
12359;SDS011;6244;51.460;7.090;2022-10-31T01:28:44;1141.57;;;772.87;;
12359;SDS011;6244;51.460;7.090;2022-10-31T01:33:42;1139.32;;;760.10;;
12359;SDS011;6244;51.460;7.090;2022-10-31T01:38:39;1135.85;;;759.72;;
12359;SDS011;6244;51.460;7.090;2022-10-31T01:43:44;1137.68;;;756.60;;
12359;SDS011;6244;51.460;7.090;2022-10-31T01:48:42;1138.32;;;753.28;;
12359;SDS011;6244;51.460;7.090;2022-10-31T01:53:39;1139.75;;;747.15;;
12359;SDS011;6244;51.460;7.090;2022-10-31T01:58:38;1141.57;;;739.13;;
12359;SDS011;6244;51.460;7.090;2022-10-31T02:03:37;1145.82;;;745.75;;
12359;SDS011;6244;51.460;7.090;2022-10-31T02:08:33;1141.75;;;738.65;;
12359;SDS011;6244;51.460;7.090;2022-10-31T02:13:33;1139.18;;;734.97;;
12359;SDS011;6244;51.460;7.090;2022-10-31T02:18:30;1138.17;;;740.27;;
12359;SDS011;6244;51.460;7.090;2022-10-31T02:23:36;1136.78;;;739.95;;
12359;SDS011;6244;51.460;7.090;2022-10-31T02:28:55;1135.63;;;734.17;;
12359;SDS011;6244;51.460;7.090;2022-10-31T02:34:09;1139.10;;;745.13;;
12359;SDS011;6244;51.460;7.090;2022-10-31T02:39:16;1140.03;;;756.77;;
12359;SDS011;6244;51.460;7.090;2022-10-31T02:44:20;1140.97;;;755.20;;
12359;SDS011;6244;51.460;7.090;2022-10-31T02:49:26;1134.35;;;747.45;;
12359;SDS011;6244;51.460;7.090;2022-10-31T02:54:26;1137.45;;;764.58;;
12359;SDS011;6244;51.460;7.090;2022-10-31T02:59:24;1138.57;;;755.25;;
12359;SDS011;6244;51.460;7.090;2022-10-31T03:04:27;1143.55;;;757.22;;
12359;SDS011;6244;51.460;7.090;2022-10-31T03:09:34;1139.70;;;758.70;;
12359;SDS011;6244;51.460;7.090;2022-10-31T03:14:39;1141.57;;;761.88;;
12359;SDS011;6244;51.460;7.090;2022-10-31T03:19:39;1144.07;;;764.10;;
12359;SDS011;6244;51.460;7.090;2022-10-31T03:24:39;1138.93;;;760.25;;
12359;SDS011;6244;51.460;7.090;2022-10-31T03:29:36;1140.95;;;748.13;;
12359;SDS011;6244;51.460;7.090;2022-10-31T03:34:34;1141.23;;;740.63;;
12359;SDS011;6244;51.460;7.090;2022-10-31T03:39:34;1144.17;;;733.13;;
12359;SDS011;6244;51.460;7.090;2022-10-31T03:44:35;1143.17;;;710.67;;
12359;SDS011;6244;51.460;7.090;2022-10-31T03:49:33;1147.93;;;718.30;;
12359;SDS011;6244;51.460;7.090;2022-10-31T03:54:31;1151.93;;;709.97;;
12359;SDS011;6244;51.460;7.090;2022-10-31T03:59:35;1146.73;;;705.53;;
12359;SDS011;6244;51.460;7.090;2022-10-31T04:04:36;1145.67;;;695.27;;
12359;SDS011;6244;51.460;7.090;2022-10-31T04:09:36;1139.63;;;686.77;;
12359;SDS011;6244;51.460;7.090;2022-10-31T04:14:36;1142.33;;;711.20;;
12359;SDS011;6244;51.460;7.090;2022-10-31T04:19:35;1141.50;;;716.55;;
12359;SDS011;6244;51.460;7.090;2022-10-31T04:24:32;1143.03;;;731.72;;
12359;SDS011;6244;51.460;7.090;2022-10-31T04:29:30;1145.50;;;760.97;;
12359;SDS011;6244;51.460;7.090;2022-10-31T04:34:26;1148.13;;;778.27;;
12359;SDS011;6244;51.460;7.090;2022-10-31T04:39:23;1144.80;;;762.50;;
12359;SDS011;6244;51.460;7.090;2022-10-31T04:44:19;1146.93;;;756.55;;
12359;SDS011;6244;51.460;7.090;2022-10-31T04:49:17;1143.13;;;758.30;;
12359;SDS011;6244;51.460;7.090;2022-10-31T04:54:14;1142.00;;;755.50;;
12359;SDS011;6244;51.460;7.090;2022-10-31T04:59:10;1137.43;;;750.60;;
12359;SDS011;6244;51.460;7.090;2022-10-31T05:04:07;1135.90;;;751.88;;
12359;SDS011;6244;51.460;7.090;2022-10-31T05:09:05;1138.73;;;754.87;;
12359;SDS011;6244;51.460;7.090;2022-10-31T05:14:01;1136.95;;;745.33;;
12359;SDS011;6244;51.460;7.090;2022-10-31T05:18:58;1131.43;;;714.38;;
12359;SDS011;6244;51.460;7.090;2022-10-31T05:23:54;1138.03;;;718.13;;
12359;SDS011;6244;51.460;7.090;2022-10-31T05:28:52;1138.43;;;713.80;;
12359;SDS011;6244;51.460;7.090;2022-10-31T05:33:49;1134.18;;;690.90;;
12359;SDS011;6244;51.460;7.090;2022-10-31T05:38:45;1140.17;;;727.17;;
12359;SDS011;6244;51.460;7.090;2022-10-31T05:43:42;1133.68;;;715.22;;
12359;SDS011;6244;51.460;7.090;2022-10-31T05:48:39;1141.63;;;727.65;;
12359;SDS011;6244;51.460;7.090;2022-10-31T05:53:36;1134.72;;;733.17;;
12359;SDS011;6244;51.460;7.090;2022-10-31T05:58:32;1134.82;;;732.40;;
12359;SDS011;6244;51.460;7.090;2022-10-31T06:03:29;1131.88;;;719.13;;
12359;SDS011;6244;51.460;7.090;2022-10-31T06:08:27;1136.77;;;730.23;;
12359;SDS011;6244;51.460;7.090;2022-10-31T06:13:23;1134.55;;;728.92;;
12359;SDS011;6244;51.460;7.090;2022-10-31T06:18:20;1136.17;;;735.13;;
12359;SDS011;6244;51.460;7.090;2022-10-31T06:23:16;1136.15;;;727.33;;
12359;SDS011;6244;51.460;7.090;2022-10-31T06:28:14;1128.40;;;712.95;;
12359;SDS011;6244;51.460;7.090;2022-10-31T06:33:10;1134.68;;;726.50;;
12359;SDS011;6244;51.460;7.090;2022-10-31T06:38:07;1137.20;;;714.72;;
12359;SDS011;6244;51.460;7.090;2022-10-31T06:43:03;1132.93;;;716.65;;
12359;SDS011;6244;51.460;7.090;2022-10-31T06:48:01;1131.10;;;718.88;;
12359;SDS011;6244;51.460;7.090;2022-10-31T06:52:58;1135.00;;;702.88;;
12359;SDS011;6244;51.460;7.090;2022-10-31T06:57:56;1133.57;;;709.60;;
12359;SDS011;6244;51.460;7.090;2022-10-31T07:02:54;1135.32;;;715.50;;
12359;SDS011;6244;51.460;7.090;2022-10-31T07:07:53;1136.00;;;706.38;;
12359;SDS011;6244;51.460;7.090;2022-10-31T07:12:53;1128.45;;;695.90;;
12359;SDS011;6244;51.460;7.090;2022-10-31T07:17:50;1132.23;;;722.80;;
12359;SDS011;6244;51.460;7.090;2022-10-31T07:22:47;1128.10;;;710.57;;
12359;SDS011;6244;51.460;7.090;2022-10-31T07:27:44;1131.38;;;727.80;;
12359;SDS011;6244;51.460;7.090;2022-10-31T07:32:43;1132.18;;;724.22;;
12359;SDS011;6244;51.460;7.090;2022-10-31T07:37:41;1135.63;;;737.40;;
12359;SDS011;6244;51.460;7.090;2022-10-31T07:42:38;1136.77;;;734.40;;
12359;SDS011;6244;51.460;7.090;2022-10-31T07:47:39;1138.07;;;731.27;;
12359;SDS011;6244;51.460;7.090;2022-10-31T07:52:36;1139.35;;;729.25;;
12359;SDS011;6244;51.460;7.090;2022-10-31T07:57:33;1138.57;;;721.22;;
12359;SDS011;6244;51.460;7.090;2022-10-31T08:02:31;1138.72;;;730.58;;
12359;SDS011;6244;51.460;7.090;2022-10-31T08:07:29;1143.13;;;743.03;;
12359;SDS011;6244;51.460;7.090;2022-10-31T08:12:32;1141.80;;;745.28;;
12359;SDS011;6244;51.460;7.090;2022-10-31T08:17:28;1142.72;;;746.58;;
12359;SDS011;6244;51.460;7.090;2022-10-31T08:22:25;1143.63;;;744.60;;
12359;SDS011;6244;51.460;7.090;2022-10-31T08:27:23;1145.07;;;748.97;;
12359;SDS011;6244;51.460;7.090;2022-10-31T08:32:20;1146.73;;;748.20;;
12359;SDS011;6244;51.460;7.090;2022-10-31T08:37:16;1148.95;;;750.58;;
12359;SDS011;6244;51.460;7.090;2022-10-31T08:42:14;1152.33;;;764.30;;
12359;SDS011;6244;51.460;7.090;2022-10-31T08:47:12;1152.50;;;794.22;;
12359;SDS011;6244;51.460;7.090;2022-10-31T08:52:09;1153.13;;;779.85;;
12359;SDS011;6244;51.460;7.090;2022-10-31T08:57:06;1158.30;;;833.67;;
12359;SDS011;6244;51.460;7.090;2022-10-31T09:02:02;1156.28;;;835.22;;
12359;SDS011;6244;51.460;7.090;2022-10-31T09:07:00;1157.45;;;827.67;;
12359;SDS011;6244;51.460;7.090;2022-10-31T09:11:56;1148.57;;;851.33;;
12359;SDS011;6244;51.460;7.090;2022-10-31T09:16:53;1152.70;;;853.95;;
12359;SDS011;6244;51.460;7.090;2022-10-31T09:21:51;1153.90;;;868.63;;
12359;SDS011;6244;51.460;7.090;2022-10-31T09:26:50;1144.32;;;855.83;;
12359;SDS011;6244;51.460;7.090;2022-10-31T09:31:46;1142.10;;;854.35;;
12359;SDS011;6244;51.460;7.090;2022-10-31T09:36:42;1144.88;;;857.28;;
12359;SDS011;6244;51.460;7.090;2022-10-31T09:41:55;1148.40;;;865.95;;
12359;SDS011;6244;51.460;7.090;2022-10-31T09:47:00;1144.73;;;858.20;;
12359;SDS011;6244;51.460;7.090;2022-10-31T09:52:01;1151.37;;;836.13;;
12359;SDS011;6244;51.460;7.090;2022-10-31T09:57:02;1152.75;;;826.63;;
12359;SDS011;6244;51.460;7.090;2022-10-31T10:02:00;1153.47;;;827.13;;
12359;SDS011;6244;51.460;7.090;2022-10-31T10:06:58;1158.63;;;831.63;;
12359;SDS011;6244;51.460;7.090;2022-10-31T10:12:03;1150.50;;;822.10;;
12359;SDS011;6244;51.460;7.090;2022-10-31T10:17:17;1149.88;;;824.28;;
12359;SDS011;6244;51.460;7.090;2022-10-31T10:22:24;1152.82;;;830.05;;
12359;SDS011;6244;51.460;7.090;2022-10-31T10:27:31;1150.10;;;840.20;;
12359;SDS011;6244;51.460;7.090;2022-10-31T10:32:40;1151.80;;;845.40;;
12359;SDS011;6244;51.460;7.090;2022-10-31T10:37:41;1151.22;;;844.75;;
12359;SDS011;6244;51.460;7.090;2022-10-31T10:42:42;1148.20;;;823.07;;
12359;SDS011;6244;51.460;7.090;2022-10-31T10:48:11;1152.80;;;863.00;;
12359;SDS011;6244;51.460;7.090;2022-10-31T10:53:14;1143.57;;;857.28;;
12359;SDS011;6244;51.460;7.090;2022-10-31T10:58:28;1151.17;;;833.30;;
12359;SDS011;6244;51.460;7.090;2022-10-31T11:03:25;1148.32;;;829.70;;
12359;SDS011;6244;51.460;7.090;2022-10-31T11:08:24;1147.50;;;830.35;;
12359;SDS011;6244;51.460;7.090;2022-10-31T11:13:22;1152.97;;;829.88;;
12359;SDS011;6244;51.460;7.090;2022-10-31T11:18:23;1149.43;;;820.00;;
12359;SDS011;6244;51.460;7.090;2022-10-31T11:23:22;1150.50;;;809.00;;
12359;SDS011;6244;51.460;7.090;2022-10-31T11:28:20;1151.65;;;821.50;;
12359;SDS011;6244;51.460;7.090;2022-10-31T11:33:18;1149.18;;;810.50;;
12359;SDS011;6244;51.460;7.090;2022-10-31T11:38:18;1149.37;;;825.10;;
12359;SDS011;6244;51.460;7.090;2022-10-31T11:43:18;1146.93;;;823.90;;
12359;SDS011;6244;51.460;7.090;2022-10-31T11:48:15;1144.72;;;806.45;;
12359;SDS011;6244;51.460;7.090;2022-10-31T11:53:14;1147.10;;;822.22;;
12359;SDS011;6244;51.460;7.090;2022-10-31T11:58:24;1141.45;;;819.83;;
12359;SDS011;6244;51.460;7.090;2022-10-31T12:03:40;1144.50;;;820.33;;
12359;SDS011;6244;51.460;7.090;2022-10-31T12:08:45;1149.75;;;827.83;;
12359;SDS011;6244;51.460;7.090;2022-10-31T12:13:46;1145.20;;;815.17;;
12359;SDS011;6244;51.460;7.090;2022-10-31T12:18:56;1145.93;;;817.83;;
12359;SDS011;6244;51.460;7.090;2022-10-31T12:23:59;1144.05;;;816.45;;
12359;SDS011;6244;51.460;7.090;2022-10-31T12:29:10;1138.00;;;836.88;;
12359;SDS011;6244;51.460;7.090;2022-10-31T12:39:44;1137.10;;;829.33;;
12359;SDS011;6244;51.460;7.090;2022-10-31T12:50:22;1136.80;;;825.80;;
12359;SDS011;6244;51.460;7.090;2022-10-31T12:55:31;1138.45;;;818.58;;
12359;SDS011;6244;51.460;7.090;2022-10-31T13:00:37;1139.38;;;815.10;;
12359;SDS011;6244;51.460;7.090;2022-10-31T13:05:40;1138.00;;;817.78;;
12359;SDS011;6244;51.460;7.090;2022-10-31T13:10:40;1135.50;;;819.38;;
12359;SDS011;6244;51.460;7.090;2022-10-31T13:15:45;1137.32;;;836.40;;
12359;SDS011;6244;51.460;7.090;2022-10-31T13:20:44;1135.50;;;824.97;;
12359;SDS011;6244;51.460;7.090;2022-10-31T13:25:44;1138.28;;;839.80;;
12359;SDS011;6244;51.460;7.090;2022-10-31T13:30:46;1135.10;;;828.88;;
12359;SDS011;6244;51.460;7.090;2022-10-31T13:35:46;1132.77;;;828.67;;
12359;SDS011;6244;51.460;7.090;2022-10-31T13:40:51;1135.18;;;833.85;;
12359;SDS011;6244;51.460;7.090;2022-10-31T13:45:53;1136.22;;;821.05;;
12359;SDS011;6244;51.460;7.090;2022-10-31T13:50:55;1134.60;;;827.05;;
12359;SDS011;6244;51.460;7.090;2022-10-31T13:56:02;1135.13;;;821.08;;
12359;SDS011;6244;51.460;7.090;2022-10-31T14:01:04;1132.22;;;817.67;;
12359;SDS011;6244;51.460;7.090;2022-10-31T14:06:11;1129.32;;;825.67;;
12359;SDS011;6244;51.460;7.090;2022-10-31T14:11:22;1134.13;;;821.33;;
12359;SDS011;6244;51.460;7.090;2022-10-31T14:16:24;1136.53;;;820.60;;
12359;SDS011;6244;51.460;7.090;2022-10-31T14:21:27;1132.70;;;819.30;;
12359;SDS011;6244;51.460;7.090;2022-10-31T14:26:34;1134.40;;;817.95;;
12359;SDS011;6244;51.460;7.090;2022-10-31T14:31:37;1138.07;;;818.08;;
12359;SDS011;6244;51.460;7.090;2022-10-31T14:36:38;1138.10;;;836.60;;
12359;SDS011;6244;51.460;7.090;2022-10-31T14:41:50;1137.37;;;837.67;;
12359;SDS011;6244;51.460;7.090;2022-10-31T14:46:57;1139.03;;;824.30;;
12359;SDS011;6244;51.460;7.090;2022-10-31T14:52:04;1132.67;;;810.70;;
12359;SDS011;6244;51.460;7.090;2022-10-31T14:57:04;1137.63;;;827.60;;
12359;SDS011;6244;51.460;7.090;2022-10-31T15:02:09;1138.83;;;817.47;;
12359;SDS011;6244;51.460;7.090;2022-10-31T15:07:12;1144.18;;;802.75;;
12359;SDS011;6244;51.460;7.090;2022-10-31T15:12:24;1144.28;;;808.55;;
12359;SDS011;6244;51.460;7.090;2022-10-31T15:17:23;1143.30;;;802.78;;
12359;SDS011;6244;51.460;7.090;2022-10-31T15:22:23;1147.65;;;812.33;;
12359;SDS011;6244;51.460;7.090;2022-10-31T15:27:22;1145.15;;;804.72;;
12359;SDS011;6244;51.460;7.090;2022-10-31T15:32:20;1149.40;;;811.83;;
12359;SDS011;6244;51.460;7.090;2022-10-31T15:37:20;1148.25;;;804.28;;
12359;SDS011;6244;51.460;7.090;2022-10-31T15:42:18;1147.55;;;801.38;;
12359;SDS011;6244;51.460;7.090;2022-10-31T15:47:17;1143.18;;;787.60;;
12359;SDS011;6244;51.460;7.090;2022-10-31T15:52:17;1146.72;;;792.40;;
12359;SDS011;6244;51.460;7.090;2022-10-31T15:57:21;1150.13;;;794.57;;
12359;SDS011;6244;51.460;7.090;2022-10-31T16:02:19;1146.38;;;801.75;;
12359;SDS011;6244;51.460;7.090;2022-10-31T16:07:17;1145.85;;;803.40;;
12359;SDS011;6244;51.460;7.090;2022-10-31T16:12:16;1147.20;;;802.25;;
12359;SDS011;6244;51.460;7.090;2022-10-31T16:17:13;1140.80;;;789.58;;
12359;SDS011;6244;51.460;7.090;2022-10-31T16:22:13;1141.50;;;780.07;;
12359;SDS011;6244;51.460;7.090;2022-10-31T16:27:18;1147.07;;;796.80;;
12359;SDS011;6244;51.460;7.090;2022-10-31T16:32:25;1144.40;;;787.40;;
12359;SDS011;6244;51.460;7.090;2022-10-31T16:37:23;1145.65;;;780.45;;
12359;SDS011;6244;51.460;7.090;2022-10-31T16:42:21;1143.43;;;791.72;;
12359;SDS011;6244;51.460;7.090;2022-10-31T16:47:19;1146.70;;;789.30;;
12359;SDS011;6244;51.460;7.090;2022-10-31T16:52:16;1146.82;;;790.25;;
12359;SDS011;6244;51.460;7.090;2022-10-31T16:57:13;1142.43;;;789.97;;
12359;SDS011;6244;51.460;7.090;2022-10-31T17:02:15;1139.17;;;781.73;;
12359;SDS011;6244;51.460;7.090;2022-10-31T17:07:12;1145.47;;;791.50;;
12359;SDS011;6244;51.460;7.090;2022-10-31T17:12:10;1144.57;;;793.63;;
12359;SDS011;6244;51.460;7.090;2022-10-31T17:17:11;1141.07;;;789.33;;
12359;SDS011;6244;51.460;7.090;2022-10-31T17:22:09;1138.67;;;786.37;;
12359;SDS011;6244;51.460;7.090;2022-10-31T17:27:07;1138.72;;;781.47;;
12359;SDS011;6244;51.460;7.090;2022-10-31T17:32:03;1136.20;;;770.85;;
12359;SDS011;6244;51.460;7.090;2022-10-31T17:37:00;1134.90;;;754.15;;
12359;SDS011;6244;51.460;7.090;2022-10-31T17:41:58;1134.63;;;761.35;;
12359;SDS011;6244;51.460;7.090;2022-10-31T17:46:54;1131.93;;;754.58;;
12359;SDS011;6244;51.460;7.090;2022-10-31T17:51:51;1134.77;;;762.47;;
12359;SDS011;6244;51.460;7.090;2022-10-31T17:56:47;1136.70;;;762.47;;
12359;SDS011;6244;51.460;7.090;2022-10-31T18:01:45;1134.75;;;760.83;;
12359;SDS011;6244;51.460;7.090;2022-10-31T18:06:42;1134.32;;;757.05;;
12359;SDS011;6244;51.460;7.090;2022-10-31T18:11:39;1134.13;;;760.83;;
12359;SDS011;6244;51.460;7.090;2022-10-31T18:16:36;1130.37;;;746.70;;
12359;SDS011;6244;51.460;7.090;2022-10-31T18:21:34;1132.75;;;754.22;;
12359;SDS011;6244;51.460;7.090;2022-10-31T18:26:30;1133.57;;;760.25;;
12359;SDS011;6244;51.460;7.090;2022-10-31T18:31:27;1136.00;;;764.75;;
12359;SDS011;6244;51.460;7.090;2022-10-31T18:36:24;1133.30;;;750.70;;
12359;SDS011;6244;51.460;7.090;2022-10-31T18:41:22;1137.90;;;774.43;;
12359;SDS011;6244;51.460;7.090;2022-10-31T18:46:18;1132.33;;;766.77;;
12359;SDS011;6244;51.460;7.090;2022-10-31T18:51:15;1133.47;;;772.60;;
12359;SDS011;6244;51.460;7.090;2022-10-31T18:56:12;1140.82;;;778.85;;
12359;SDS011;6244;51.460;7.090;2022-10-31T19:01:10;1135.83;;;770.87;;
12359;SDS011;6244;51.460;7.090;2022-10-31T19:06:08;1137.63;;;775.60;;
12359;SDS011;6244;51.460;7.090;2022-10-31T19:11:07;1139.47;;;774.67;;
12359;SDS011;6244;51.460;7.090;2022-10-31T19:16:06;1138.32;;;774.40;;
12359;SDS011;6244;51.460;7.090;2022-10-31T19:21:06;1137.45;;;769.28;;
12359;SDS011;6244;51.460;7.090;2022-10-31T19:26:03;1136.65;;;760.60;;
12359;SDS011;6244;51.460;7.090;2022-10-31T19:31:01;1138.40;;;754.72;;
12359;SDS011;6244;51.460;7.090;2022-10-31T19:35:58;1137.68;;;756.22;;
12359;SDS011;6244;51.460;7.090;2022-10-31T19:40:57;1141.35;;;762.13;;
12359;SDS011;6244;51.460;7.090;2022-10-31T19:45:55;1137.82;;;764.17;;
12359;SDS011;6244;51.460;7.090;2022-10-31T19:50:52;1141.60;;;767.00;;
12359;SDS011;6244;51.460;7.090;2022-10-31T19:55:55;1136.53;;;759.92;;
12359;SDS011;6244;51.460;7.090;2022-10-31T20:00:53;1142.17;;;763.20;;
12359;SDS011;6244;51.460;7.090;2022-10-31T20:05:50;1137.73;;;761.97;;
12359;SDS011;6244;51.460;7.090;2022-10-31T20:10:52;1143.20;;;769.15;;
12359;SDS011;6244;51.460;7.090;2022-10-31T20:15:51;1139.47;;;764.42;;
12359;SDS011;6244;51.460;7.090;2022-10-31T20:20:47;1143.32;;;770.83;;
12359;SDS011;6244;51.460;7.090;2022-10-31T20:25:47;1145.97;;;787.20;;
12359;SDS011;6244;51.460;7.090;2022-10-31T20:30:44;1145.95;;;794.35;;
12359;SDS011;6244;51.460;7.090;2022-10-31T20:35:42;1140.93;;;773.30;;
12359;SDS011;6244;51.460;7.090;2022-10-31T20:40:39;1144.57;;;783.65;;
12359;SDS011;6244;51.460;7.090;2022-10-31T20:45:35;1146.65;;;788.92;;
12359;SDS011;6244;51.460;7.090;2022-10-31T20:50:32;1141.05;;;779.03;;
12359;SDS011;6244;51.460;7.090;2022-10-31T20:55:30;1140.63;;;771.97;;
12359;SDS011;6244;51.460;7.090;2022-10-31T21:00:27;1142.03;;;775.95;;
12359;SDS011;6244;51.460;7.090;2022-10-31T21:05:23;1139.00;;;758.13;;
12359;SDS011;6244;51.460;7.090;2022-10-31T21:10:20;1141.30;;;759.50;;
12359;SDS011;6244;51.460;7.090;2022-10-31T21:15:18;1137.43;;;756.35;;
12359;SDS011;6244;51.460;7.090;2022-10-31T21:20:14;1138.68;;;758.60;;
12359;SDS011;6244;51.460;7.090;2022-10-31T21:25:11;1138.20;;;767.75;;
12359;SDS011;6244;51.460;7.090;2022-10-31T21:30:07;1140.43;;;765.10;;
12359;SDS011;6244;51.460;7.090;2022-10-31T21:35:06;1138.57;;;756.45;;
12359;SDS011;6244;51.460;7.090;2022-10-31T21:40:03;1143.05;;;771.92;;
12359;SDS011;6244;51.460;7.090;2022-10-31T21:45:00;1141.40;;;770.43;;
12359;SDS011;6244;51.460;7.090;2022-10-31T21:49:57;1139.20;;;766.17;;
12359;SDS011;6244;51.460;7.090;2022-10-31T21:54:55;1136.55;;;758.30;;
12359;SDS011;6244;51.460;7.090;2022-10-31T21:59:51;1141.18;;;764.33;;
12359;SDS011;6244;51.460;7.090;2022-10-31T22:04:48;1142.97;;;769.67;;
12359;SDS011;6244;51.460;7.090;2022-10-31T22:09:45;1137.30;;;759.85;;
12359;SDS011;6244;51.460;7.090;2022-10-31T22:14:43;1136.55;;;760.35;;
12359;SDS011;6244;51.460;7.090;2022-10-31T22:19:40;1133.55;;;759.15;;
12359;SDS011;6244;51.460;7.090;2022-10-31T22:24:36;1139.80;;;764.28;;
12359;SDS011;6244;51.460;7.090;2022-10-31T22:29:33;1134.88;;;758.40;;
12359;SDS011;6244;51.460;7.090;2022-10-31T22:34:32;1135.75;;;754.33;;
12359;SDS011;6244;51.460;7.090;2022-10-31T22:39:29;1139.18;;;758.40;;
12359;SDS011;6244;51.460;7.090;2022-10-31T22:44:25;1142.30;;;768.88;;
12359;SDS011;6244;51.460;7.090;2022-10-31T22:49:22;1138.90;;;760.53;;
12359;SDS011;6244;51.460;7.090;2022-10-31T22:54:20;1133.37;;;748.90;;
12359;SDS011;6244;51.460;7.090;2022-10-31T22:59:16;1140.17;;;771.33;;
12359;SDS011;6244;51.460;7.090;2022-10-31T23:04:13;1140.32;;;766.40;;
12359;SDS011;6244;51.460;7.090;2022-10-31T23:09:12;1137.22;;;759.97;;
12359;SDS011;6244;51.460;7.090;2022-10-31T23:14:12;1142.13;;;773.72;;
12359;SDS011;6244;51.460;7.090;2022-10-31T23:19:10;1136.33;;;777.97;;
12359;SDS011;6244;51.460;7.090;2022-10-31T23:24:09;1131.55;;;754.25;;
12359;SDS011;6244;51.460;7.090;2022-10-31T23:29:06;1137.85;;;761.13;;
12359;SDS011;6244;51.460;7.090;2022-10-31T23:34:04;1136.10;;;756.42;;
12359;SDS011;6244;51.460;7.090;2022-10-31T23:39:01;1131.60;;;746.72;;
12359;SDS011;6244;51.460;7.090;2022-10-31T23:43:57;1136.32;;;756.75;;
12359;SDS011;6244;51.460;7.090;2022-10-31T23:48:54;1133.53;;;751.83;;
12359;SDS011;6244;51.460;7.090;2022-10-31T23:53:51;1135.53;;;748.15;;
12359;SDS011;6244;51.460;7.090;2022-10-31T23:58:48;1129.47;;;740.50;;
